Thunder radar more information blitzortung!


Radar de pluja more information rain snow radar


Visita la nostra xarxa de llocs de meteo:

Template documentation
and downloads

And another site



No particular awareness of the weather is required.    There are no Weather-warnings

Pagina Historial Weather Underground text

Diari Resum Juny 5, 2016 Unitats:  Mètric    Imperial   Tant
« Previous Dia
SegĂźent Dia »
Diari Setmana Mensual Anual Personalitzada
  Maxima: Minima: Media:
Temperatura: 28.7 °C 16.0 °C 22.1 °C
Punt de rosada: 13.7 °C 11.6 °C 12.8 °C
Humitat: 82 % 38 % 58 %
Wind Speed: 22.2 km/h 0.0 km/h 6.5 km/h
RĂ fegues de vent: 22.2 km/h - -
Vent:- - SW
Pression baro: 1018.8 hPa 1013.8 hPa -
Precipitacions: 0.0 mm    
Historical Graphs
 
 
Dades de taula per Juny 5, 2016
Temps Temperatura Punt de rosada Pression baro Vent Wind Speed RĂ fegues de vent Humitat Rainfall Rate (Hourly)
00:00 18.5 °C 11.8 °C 1015.8 hPa SSW 3.2 km/h 4.8 km/h 65 % 0.0 mm
00:05 18.4 °C 11.7 °C 1015.8 hPa SSW 3.2 km/h 4.8 km/h 65 % 0.0 mm
00:10 18.3 °C 11.6 °C 1015.8 hPa SSW 5.6 km/h 5.6 km/h 65 % 0.0 mm
07:50 26.9 °C 13.3 °C 1018.8 hPa SW 4.8 km/h 12.9 km/h 43 % 0.0 mm
08:00 27.2 °C 13.6 °C 1018.8 hPa SW 3.2 km/h 11.3 km/h 43 % 0.0 mm
08:20 26.6 °C 12.6 °C 1017.8 hPa SW 1.6 km/h 16.1 km/h 42 % 0.0 mm
08:30 26.7 °C 12.7 °C 1017.8 hPa SW 3.2 km/h 12.9 km/h 42 % 0.0 mm
08:40 27.0 °C 13.0 °C 1016.8 hPa SW 4.8 km/h 19.3 km/h 42 % 0.0 mm
08:50 26.6 °C 12.3 °C 1017.8 hPa SW 9.7 km/h 16.1 km/h 41 % 0.0 mm
09:00 27.6 °C 13.2 °C 1017.8 hPa SSW 3.2 km/h 8.0 km/h 41 % 0.0 mm
09:10 27.2 °C 12.1 °C 1016.8 hPa SSW 11.3 km/h 11.3 km/h 39 % 0.0 mm
09:20 27.9 °C 13.1 °C 1015.8 hPa SW 4.8 km/h 11.3 km/h 40 % 0.0 mm
09:30 27.3 °C 12.5 °C 1015.8 hPa SW 11.3 km/h 14.5 km/h 40 % 0.0 mm
09:40 27.6 °C 12.4 °C 1015.8 hPa SW 8.0 km/h 16.1 km/h 39 % 0.0 mm
09:50 27.4 °C 12.2 °C 1015.8 hPa SW 11.3 km/h 17.7 km/h 39 % 0.0 mm
10:00 28.3 °C 13.4 °C 1015.8 hPa SW 1.6 km/h 12.9 km/h 40 % 0.0 mm
10:10 27.9 °C 12.7 °C 1015.8 hPa SW 4.8 km/h 14.5 km/h 39 % 0.0 mm
10:30 28.1 °C 12.4 °C 1015.8 hPa SW 4.8 km/h 8.0 km/h 38 % 0.0 mm
10:50 28.3 °C 12.6 °C 1014.8 hPa SW 3.2 km/h 17.7 km/h 38 % 0.0 mm
11:00 28.7 °C 13.0 °C 1014.8 hPa SW 4.8 km/h 16.1 km/h 38 % 0.0 mm
11:10 27.9 °C 12.3 °C 1014.8 hPa SW 8.0 km/h 16.1 km/h 38 % 0.0 mm
11:20 27.4 °C 11.8 °C 1014.8 hPa SW 4.8 km/h 20.9 km/h 38 % 0.0 mm
11:30 28.0 °C 12.3 °C 1014.8 hPa SW 4.8 km/h 12.9 km/h 38 % 0.0 mm
11:40 28.0 °C 12.3 °C 1014.8 hPa SSW 11.3 km/h 12.9 km/h 38 % 0.0 mm
11:50 28.4 °C 12.7 °C 1014.8 hPa SW 3.2 km/h 16.1 km/h 38 % 0.0 mm
12:00 28.1 °C 12.4 °C 1014.8 hPa SW 9.7 km/h 16.1 km/h 38 % 0.0 mm
12:10 27.5 °C 11.9 °C 1013.8 hPa SW 9.7 km/h 12.9 km/h 38 % 0.0 mm
12:20 27.4 °C 12.2 °C 1013.8 hPa SW 9.7 km/h 9.7 km/h 39 % 0.0 mm
12:30 27.0 °C 11.9 °C 1013.8 hPa SW 12.9 km/h 17.7 km/h 39 % 0.0 mm
12:40 27.1 °C 12.3 °C 1013.8 hPa SW 11.3 km/h 12.9 km/h 40 % 0.0 mm
12:50 27.0 °C 12.2 °C 1013.8 hPa WSW 8.0 km/h 9.7 km/h 40 % 0.0 mm
13:00 26.8 °C 12.8 °C 1013.8 hPa WSW 8.0 km/h 17.7 km/h 42 % 0.0 mm
13:10 26.4 °C 12.4 °C 1013.8 hPa SW 9.7 km/h 16.1 km/h 42 % 0.0 mm
18:18 26.1 °C 12.6 °C 1013.8 hPa SSW 18.5 km/h 18.5 km/h 43 % 0.0 mm
18:23 26.2 °C 12.6 °C 1013.8 hPa SSE 12.6 km/h 12.6 km/h 43 % 0.0 mm
18:28 26.0 °C 12.4 °C 1013.8 hPa West 13.0 km/h 13.0 km/h 43 % 0.0 mm
18:33 26.0 °C 12.8 °C 1013.8 hPa SSW 11.1 km/h 11.1 km/h 44 % 0.0 mm
18:38 26.1 °C 12.9 °C 1013.8 hPa SW 11.1 km/h 11.1 km/h 44 % 0.0 mm
18:43 25.8 °C 12.6 °C 1013.8 hPa West 22.2 km/h 22.2 km/h 44 % 0.0 mm
18:48 25.5 °C 12.3 °C 1013.8 hPa SW 11.1 km/h 11.1 km/h 44 % 0.0 mm
18:53 25.3 °C 12.5 °C 1013.8 hPa SW 16.1 km/h 16.1 km/h 45 % 0.0 mm
19:03 25.0 °C 12.2 °C 1013.8 hPa SSW 16.7 km/h 16.7 km/h 45 % 0.0 mm
19:08 24.9 °C 12.5 °C 1013.8 hPa SSE 9.3 km/h 9.3 km/h 46 % 0.0 mm
19:13 24.6 °C 12.2 °C 1013.8 hPa SSW 18.5 km/h 18.5 km/h 46 % 0.0 mm
19:18 24.5 °C 12.4 °C 1013.8 hPa SSW 16.7 km/h 16.7 km/h 47 % 0.0 mm
19:20 18.4 °C 13.4 °C 1018.8 hPa SW 1.6 km/h 3.2 km/h 73 % 0.0 mm
19:23 24.4 °C 12.3 °C 1013.8 hPa SW 13.0 km/h 13.0 km/h 47 % 0.0 mm
19:28 24.0 °C 12.3 °C 1013.8 hPa SW 9.3 km/h 9.3 km/h 48 % 0.0 mm
19:30 18.4 °C 13.7 °C 1018.8 hPa SW 1.6 km/h 3.2 km/h 74 % 0.0 mm
19:33 24.0 °C 12.3 °C 1013.8 hPa WSW 10.0 km/h 11.1 km/h 48 % 0.0 mm
19:38 23.8 °C 12.4 °C 1013.8 hPa WSW 11.1 km/h 11.1 km/h 49 % 0.0 mm
19:40 18.4 °C 13.7 °C 1017.8 hPa WSW 1.6 km/h 3.2 km/h 74 % 0.0 mm
19:43 23.8 °C 12.4 °C 1013.8 hPa WSW 9.0 km/h 9.0 km/h 49 % 0.0 mm
19:48 23.7 °C 12.3 °C 1013.8 hPa SSW 9.3 km/h 9.3 km/h 49 % 0.0 mm
19:50 18.3 °C 13.6 °C 1017.8 hPa WSW 1.6 km/h 3.2 km/h 74 % 0.0 mm
19:53 23.5 °C 12.2 °C 1013.8 hPa SW 16.7 km/h 16.7 km/h 49 % 0.0 mm
20:00 18.2 °C 13.7 °C 1017.8 hPa WSW 1.6 km/h 3.2 km/h 75 % 0.0 mm
20:03 23.2 °C 12.2 °C 1014.8 hPa South 13.0 km/h 13.0 km/h 50 % 0.0 mm
20:08 23.2 °C 12.2 °C 1014.8 hPa WSW 11.9 km/h 11.9 km/h 50 % 0.0 mm
20:10 18.1 °C 13.6 °C 1017.8 hPa Calm     75 % 0.0 mm
20:13 23.0 °C 12.0 °C 1014.8 hPa SW 11.9 km/h 11.9 km/h 50 % 0.0 mm
20:18 22.8 °C 12.4 °C 1014.8 hPa SW 14.8 km/h 14.8 km/h 52 % 0.0 mm
20:23 22.7 °C 12.3 °C 1014.8 hPa SW 9.7 km/h 9.7 km/h 52 % 0.0 mm
20:30 17.8 °C 13.5 °C 1017.8 hPa Calm   1.6 km/h 76 % 0.0 mm
20:33 22.4 °C 12.3 °C 1014.8 hPa WSW 11.1 km/h 11.1 km/h 53 % 0.0 mm
20:38 22.2 °C 12.2 °C 1014.8 hPa SSW 14.8 km/h 14.8 km/h 53 % 0.0 mm
20:40 17.7 °C 13.4 °C 1017.8 hPa Calm     76 % 0.0 mm
20:43 22.1 °C 12.3 °C 1014.8 hPa SW 9.3 km/h 9.3 km/h 54 % 0.0 mm
20:48 21.9 °C 12.2 °C 1014.8 hPa WSW 5.6 km/h 5.6 km/h 54 % 0.0 mm
20:50 17.6 °C 13.5 °C 1017.8 hPa Calm     77 % 0.0 mm
20:53 21.8 °C 12.3 °C 1014.8 hPa WSW 5.6 km/h 5.6 km/h 55 % 0.0 mm
20:58 21.5 °C 12.3 °C 1014.8 hPa SW 5.6 km/h 5.6 km/h 56 % 0.0 mm
21:00 17.6 °C 13.5 °C 1017.8 hPa Calm   1.6 km/h 77 % 0.0 mm
21:03 21.4 °C 12.3 °C 1015.8 hPa SSW 7.4 km/h 7.4 km/h 56 % 0.0 mm
21:09 21.3 °C 12.4 °C 1015.8 hPa SW 13.0 km/h 13.0 km/h 57 % 0.0 mm
21:10 17.5 °C 13.4 °C 1017.8 hPa Calm   1.6 km/h 77 % 0.0 mm
21:14 21.1 °C 12.5 °C 1015.8 hPa SW 11.1 km/h 11.1 km/h 58 % 0.0 mm
21:19 21.0 °C 12.7 °C 1015.8 hPa SW 9.3 km/h 9.3 km/h 59 % 0.0 mm
21:20 17.2 °C 12.9 °C 1017.8 hPa South 1.6 km/h 1.6 km/h 76 % 0.0 mm
21:24 20.9 °C 12.6 °C 1015.8 hPa SW 7.4 km/h 7.4 km/h 59 % 0.0 mm
21:29 20.6 °C 12.6 °C 1015.8 hPa WSW 9.5 km/h 9.5 km/h 60 % 0.0 mm
21:30 16.8 °C 12.9 °C 1017.8 hPa SW 1.6 km/h 3.2 km/h 78 % 0.0 mm
21:34 20.5 °C 12.7 °C 1015.8 hPa SSW 12.2 km/h 12.2 km/h 61 % 0.0 mm
21:40 16.8 °C 13.1 °C 1017.8 hPa Calm   1.6 km/h 79 % 0.0 mm
21:44 20.2 °C 12.7 °C 1015.8 hPa WSW 13.0 km/h 13.0 km/h 62 % 0.0 mm
21:49 20.1 °C 12.8 °C 1015.8 hPa WSW 7.4 km/h 7.4 km/h 63 % 0.0 mm
21:50 16.8 °C 12.9 °C 1017.8 hPa SW 1.6 km/h 3.2 km/h 78 % 0.0 mm
21:54 20.0 °C 13.0 °C 1015.8 hPa SSW 11.1 km/h 11.1 km/h 64 % 0.0 mm
21:59 19.9 °C 13.1 °C 1015.8 hPa SW 6.9 km/h 6.9 km/h 65 % 0.0 mm
22:00 16.6 °C 12.9 °C 1017.8 hPa Calm     79 % 0.0 mm
22:04 19.8 °C 13.1 °C 1015.8 hPa SW 9.3 km/h 9.3 km/h 65 % 0.0 mm
22:09 19.7 °C 13.2 °C 1015.8 hPa SW 5.6 km/h 5.6 km/h 66 % 0.0 mm
22:10 16.6 °C 12.7 °C 1017.8 hPa SW 1.6 km/h 3.2 km/h 78 % 0.0 mm
22:19 19.6 °C 13.1 °C 1016.8 hPa SW 9.3 km/h 9.3 km/h 66 % 0.0 mm
22:20 16.5 °C 12.8 °C 1017.8 hPa SW 3.2 km/h 3.2 km/h 79 % 0.0 mm
22:24 19.5 °C 13.2 °C 1016.8 hPa SW 2.6 km/h 4.7 km/h 67 % 0.0 mm
22:29 19.5 °C 13.2 °C 1016.8 hPa West 2.3 km/h 5.0 km/h 67 % 0.0 mm
22:30 16.5 °C 13.1 °C 1017.8 hPa Calm   1.6 km/h 80 % 0.0 mm
22:34 19.4 °C 13.1 °C 1016.8 hPa SW 9.3 km/h 9.3 km/h 67 % 0.0 mm
22:39 19.3 °C 13.2 °C 1016.8 hPa South 1.9 km/h 3.5 km/h 68 % 0.0 mm
22:40 16.2 °C 12.6 °C 1017.8 hPa WSW 1.6 km/h 4.8 km/h 79 % 0.0 mm
22:49 19.2 °C 13.2 °C 1017.8 hPa SW 3.7 km/h   68 % 0.0 mm
22:50 16.2 °C 12.9 °C 1017.8 hPa Calm   3.2 km/h 81 % 0.0 mm
22:54 19.1 °C 13.1 °C 1017.8 hPa Calm   2.6 km/h 68 % 0.0 mm
22:59 19.1 °C 13.3 °C 1017.8 hPa SW 2.3 km/h 3.2 km/h 69 % 0.0 mm
23:00 16.3 °C 13.2 °C 1017.8 hPa SSW 1.6 km/h 3.2 km/h 82 % 0.0 mm
23:04 19.0 °C 13.2 °C 1018.8 hPa SSW 2.6 km/h 3.9 km/h 69 % 0.0 mm
23:09 19.0 °C 13.2 °C 1018.8 hPa WSW 3.7 km/h 3.7 km/h 69 % 0.0 mm
23:10 16.2 °C 13.1 °C 1017.8 hPa Calm     82 % 0.0 mm
23:14 18.9 °C 13.5 °C 1018.8 hPa SW 3.7 km/h 4.2 km/h 71 % 0.0 mm
23:19 18.8 °C 13.7 °C 1017.8 hPa SSW 1.9 km/h 4.7 km/h 72 % 0.0 mm
23:20 16.1 °C 12.8 °C 1017.8 hPa Calm     81 % 0.0 mm
23:24 18.8 °C 13.4 °C 1017.8 hPa WSW 3.7 km/h 3.7 km/h 71 % 0.0 mm
23:29 18.7 °C 13.6 °C 1017.8 hPa Calm     72 % 0.0 mm
23:30 16.0 °C 12.7 °C 1017.8 hPa Calm     81 % 0.0 mm
23:34 18.7 °C 13.6 °C 1017.8 hPa WSW 1.9 km/h 1.9 km/h 72 % 0.0 mm
23:39 18.6 °C 13.4 °C 1017.8 hPa SW 1.9 km/h   72 % 0.0 mm
23:40 16.0 °C 12.9 °C 1017.8 hPa Calm     82 % 0.0 mm
23:49 18.5 °C 13.3 °C 1017.8 hPa Calm     72 % 0.0 mm
23:50 16.1 °C 12.8 °C 1017.8 hPa Calm   3.2 km/h 81 % 0.0 mm
23:54 18.5 °C 13.3 °C 1017.8 hPa Calm     72 % 0.0 mm
Meteo Sesrovires
Elogis d' Weather Underground - 3.25 mb

Guio original per  Jim McMurry - jmcmurry@mwt.net Adaptat per a la plantilla per  Wim van der Kuil - Leuven-Template.eu

Trobareu la nostra informacio del temps tambe a:

Weather Underground

AWEKAS